Barfleur — FNIE — position and weather

sailwx.info

Track history (hours):
 
Tides and Currents Weather Stations Pressure Air Temp Water Temp Dewpoint Dewpoint Depression Visibility Wind Speed Wind Dir Waves Ship Positions

Barfleur

Operator: Brittany Ferries

Last reported at 2015-Mar-09 19:30 UTC. Time now 2015-Apr-19 15:40 UTC.
Position N 43°40' W 003°49'.
Warning: this ship's position is 40 days out of date.

Length 158 m; draft 5 m.

Type: Passenger vessel. MMSI: 227289000.

Date/timePositionNaut miles runAvg speedWind from/ knotsBaromVisibWave heightAir tempDewpointWater temp
2015-Mar-09 19:30N 43°40' W 003°49'1415.1
2015-Mar-09 18:33N 43°54' W 003°53'1515.3
2015-Mar-09 17:34N 44°09' W 003°57'2115.4
2015-Mar-09 16:12N 44°29' W 004°04'1015.5
2015-Mar-09 15:33N 44°39' W 004°08'37513.9
2015-Mar-08 12:34N 50°34' W 001°12'1313.3
2015-Mar-08 11:33N 50°47' W 001°06'2 1.5
2015-Mar-08 10:33N 50°49' W 001°06'0 0.0
2015-Mar-08 09:33N 50°49' W 001°06'9 8.9
2015-Mar-08 08:34N 50°40' W 001°04'1514.1
2015-Mar-08 07:32N 50°33' W 001°25'1515.0
2015-Mar-08 06:34N 50°37' W 001°46'10 1.9
2015-Mar-08 01:17N 50°42' W 001°59'0 0.0
2015-Mar-07 22:33N 50°42' W 001°59'2 2.2
2015-Mar-07 21:33N 50°41' W 001°57'1717.1
2015-Mar-07 20:33N 50°24' W 001°55'7 0.7
2015-Mar-07 09:33N 50°31' W 001°51'13 1.5
2015-Mar-07 01:04N 50°42' W 001°59'0 0.0
2015-Mar-06 23:32N 50°42' W 001°59'0 0.0
2015-Mar-06 22:34N 50°42' W 001°59'1 0.6
2015-Mar-06 21:33N 50°42' W 001°58'1414.4
2015-Mar-06 20:33N 50°29' W 001°52'1917.6
2015-Mar-06 19:29N 50°10' W 001°47'21 2.1
2015-Mar-06 09:26N 50°31' W 001°51'1213.8
2015-Mar-06 08:33N 50°42' W 001°59'1 0.1
2015-Mar-05 23:29N 50°42' W 001°59'0 0.0
2015-Mar-05 22:33N 50°42' W 001°59'4 4.0
2015-Mar-05 21:33N 50°39' W 001°55'1717.2
2015-Mar-05 20:33N 50°23' W 001°49'11 1.0
2015-Mar-05 09:15N 50°33' W 001°53'1013.5
2015-Mar-05 08:33N 50°42' W 001°58'1 0.3
2015-Mar-05 06:33N 50°42' W 001°57'12 0.6
2015-Mar-04 09:32N 50°31' W 001°53'1212.8
2015-Mar-04 08:33N 50°42' W 001°59'0 0.0
2015-Mar-04 07:09N 50°42' W 001°59'2 2.5
2015-Mar-04 06:34N 50°42' W 001°57'13 0.6
2015-Mar-03 09:24N 50°30' W 001°52'1315.0
2015-Mar-03 08:33N 50°42' W 001°57'1 0.2
2015-Mar-02 23:34N 50°42' W 001°59'0 0.0
2015-Mar-02 22:34N 50°42' W 001°59'2 1.6
2015-Mar-02 21:34N 50°42' W 001°57'1515.2
2015-Mar-02 20:33N 50°27' W 001°51'2 0.2
2015-Mar-02 09:33N 50°29' W 001°52'1414.2
2015-Mar-02 08:33N 50°42' W 001°59'0 0.0
2015-Mar-01 23:33N 50°42' W 001°59'0 0.0
2015-Mar-01 22:33N 50°42' W 001°59'1 1.4
2015-Mar-01 21:33N 50°42' W 001°57'1515.1
2015-Mar-01 20:33N 50°27' W 001°52'14 1.2
2015-Mar-01 08:33N 50°41' W 001°57'2 0.2
2015-Feb-28 22:33N 50°42' W 001°59'0 0.0
2015-Feb-28 21:33N 50°42' W 001°59'1111.4
2015-Feb-28 20:33N 50°32' W 001°52'1 0.1
2015-Feb-28 09:20N 50°33' W 001°53'1012.8
2015-Feb-28 08:32N 50°42' W 001°59'0 0.0
2015-Feb-27 22:33N 50°42' W 001°59'0 0.1
2015-Feb-27 21:34N 50°42' W 001°60'1312.8
2015-Feb-27 20:33N 50°31' W 001°50'  
Track history (hours):
 
Tides and Currents Weather Stations Pressure Air Temp Water Temp Dewpoint Dewpoint Depression Visibility Wind Speed Wind Dir Waves Ship Positions

Barfleur

Operator: Brittany Ferries

Last reported at 2015-Mar-09 19:30 UTC. Time now 2015-Apr-19 15:40 UTC.
Position N 43°40' W 003°49'.
Warning: this ship's position is 40 days out of date.

Length 158 m; draft 5 m.

Type: Passenger vessel. MMSI: 227289000.

Date/timePositionNaut miles runAvg speedWind from/ knotsBaromVisibWave heightAir tempDewpointWater temp
2015-Mar-09 19:30N 43°40' W 003°49'1415.1
2015-Mar-09 18:33N 43°54' W 003°53'1515.3
2015-Mar-09 17:34N 44°09' W 003°57'2115.4
2015-Mar-09 16:12N 44°29' W 004°04'1015.5
2015-Mar-09 15:33N 44°39' W 004°08'37513.9
2015-Mar-08 12:34N 50°34' W 001°12'1313.3
2015-Mar-08 11:33N 50°47' W 001°06'2 1.5
2015-Mar-08 10:33N 50°49' W 001°06'0 0.0
2015-Mar-08 09:33N 50°49' W 001°06'9 8.9
2015-Mar-08 08:34N 50°40' W 001°04'1514.1
2015-Mar-08 07:32N 50°33' W 001°25'1515.0
2015-Mar-08 06:34N 50°37' W 001°46'10 1.9
2015-Mar-08 01:17N 50°42' W 001°59'0 0.0
2015-Mar-07 22:33N 50°42' W 001°59'2 2.2
2015-Mar-07 21:33N 50°41' W 001°57'1717.1
2015-Mar-07 20:33N 50°24' W 001°55'7 0.7
2015-Mar-07 09:33N 50°31' W 001°51'13 1.5
2015-Mar-07 01:04N 50°42' W 001°59'0 0.0
2015-Mar-06 23:32N 50°42' W 001°59'0 0.0
2015-Mar-06 22:34N 50°42' W 001°59'1 0.6
2015-Mar-06 21:33N 50°42' W 001°58'1414.4
2015-Mar-06 20:33N 50°29' W 001°52'1917.6
2015-Mar-06 19:29N 50°10' W 001°47'21 2.1
2015-Mar-06 09:26N 50°31' W 001°51'1213.8
2015-Mar-06 08:33N 50°42' W 001°59'1 0.1
2015-Mar-05 23:29N 50°42' W 001°59'0 0.0
2015-Mar-05 22:33N 50°42' W 001°59'4 4.0
2015-Mar-05 21:33N 50°39' W 001°55'1717.2
2015-Mar-05 20:33N 50°23' W 001°49'11 1.0
2015-Mar-05 09:15N 50°33' W 001°53'1013.5
2015-Mar-05 08:33N 50°42' W 001°58'1 0.3
2015-Mar-05 06:33N 50°42' W 001°57'12 0.6
2015-Mar-04 09:32N 50°31' W 001°53'1212.8
2015-Mar-04 08:33N 50°42' W 001°59'0 0.0
2015-Mar-04 07:09N 50°42' W 001°59'2 2.5
2015-Mar-04 06:34N 50°42' W 001°57'13 0.6
2015-Mar-03 09:24N 50°30' W 001°52'1315.0
2015-Mar-03 08:33N 50°42' W 001°57'1 0.2
2015-Mar-02 23:34N 50°42' W 001°59'0 0.0
2015-Mar-02 22:34N 50°42' W 001°59'2 1.6
2015-Mar-02 21:34N 50°42' W 001°57'1515.2
2015-Mar-02 20:33N 50°27' W 001°51'2 0.2
2015-Mar-02 09:33N 50°29' W 001°52'1414.2
2015-Mar-02 08:33N 50°42' W 001°59'0 0.0
2015-Mar-01 23:33N 50°42' W 001°59'0 0.0
2015-Mar-01 22:33N 50°42' W 001°59'1 1.4
2015-Mar-01 21:33N 50°42' W 001°57'1515.1
2015-Mar-01 20:33N 50°27' W 001°52'14 1.2
2015-Mar-01 08:33N 50°41' W 001°57'2 0.2
2015-Feb-28 22:33N 50°42' W 001°59'0 0.0
2015-Feb-28 21:33N 50°42' W 001°59'1111.4
2015-Feb-28 20:33N 50°32' W 001°52'1 0.1
2015-Feb-28 09:20N 50°33' W 001°53'1012.8
2015-Feb-28 08:32N 50°42' W 001°59'0 0.0
2015-Feb-27 22:33N 50°42' W 001°59'0 0.1
2015-Feb-27 21:34N 50°42' W 001°60'1312.8
2015-Feb-27 20:33N 50°31' W 001°50'  

Dump ship's entire track history